Time;durP1;ratioP1;P1;durP2;ratioP2;P2;SDS_P1;SDS_P2;PMS_P1;PMS_P2;Temp;Humidity;BMP_temperature;BMP_pressure;BME280_temperature;BME280_humidity;BME280_pressure;Samples;Min_cycle;Max_cycle;Signal;HPM_P1;HPM_P2
2022/09/23 00:00:15;;;;;;;1.65;1.55;;;10.50;99.90;;;;;;5077255;28;20028;-72
2022/09/23 00:02:41;;;;;;;2.55;1.80;;;10.50;99.90;;;;;;5071358;28;20479;-72
2022/09/23 00:05:09;;;;;;;2.22;1.60;;;10.40;99.90;;;;;;5079423;28;20043;-71
2022/09/23 00:07:35;;;;;;;1.90;1.40;;;10.30;99.90;;;;;;5051948;28;20044;-78
2022/09/23 00:10:00;;;;;;;1.77;1.60;;;10.40;99.90;;;;;;5058041;28;20097;-78
2022/09/23 00:12:26;;;;;;;2.33;1.58;;;10.40;99.90;;;;;;5081046;28;20376;-78
2022/09/23 00:14:52;;;;;;;1.98;1.50;;;10.30;99.90;;;;;;5084546;28;20041;-78
2022/09/23 00:17:17;;;;;;;2.45;1.55;;;10.30;99.90;;;;;;5083300;28;20202;-79
2022/09/23 00:19:43;;;;;;;1.83;1.30;;;10.20;99.90;;;;;;5066489;28;20044;-78
2022/09/23 00:22:09;;;;;;;2.25;1.63;;;10.30;99.90;;;;;;5050930;28;20426;-77
2022/09/23 00:24:34;;;;;;;3.47;1.70;;;10.30;99.90;;;;;;5067847;28;20114;-77
2022/09/23 00:27:00;;;;;;;2.15;1.40;;;10.20;99.90;;;;;;5083399;28;20510;-77
2022/09/23 00:29:26;;;;;;;1.75;1.40;;;10.20;99.90;;;;;;5041217;28;20180;-77
2022/09/23 00:31:52;;;;;;;1.98;1.60;;;10.10;99.90;;;;;;5058852;28;20039;-78
2022/09/23 00:34:18;;;;;;;1.90;1.50;;;10.20;99.90;;;;;;5046765;28;20548;-77
2022/09/23 00:36:44;;;;;;;1.90;1.42;;;10.10;99.90;;;;;;5078277;28;20044;-77
2022/09/23 00:39:09;;;;;;;2.28;1.60;;;10.10;99.90;;;;;;5062844;28;20097;-77
2022/09/23 00:41:35;;;;;;;2.10;1.52;;;10.10;99.90;;;;;;5084424;28;20166;-78
2022/09/23 00:44:22;;;;;;;2.13;1.80;;;10.00;99.90;;;;;;5074066;28;20047;-77
2022/09/23 00:46:48;;;;;;;3.03;2.10;;;10.10;99.90;;;;;;5060185;28;20115;-78
2022/09/23 00:49:26;;;;;;;2.63;1.85;;;10.00;99.90;;;;;;5077002;28;20192;-77
2022/09/23 00:51:57;;;;;;;2.50;1.80;;;10.00;99.90;;;;;;5082232;28;20441;-77
2022/09/23 00:54:26;;;;;;;2.05;1.77;;;10.10;99.90;;;;;;5065337;28;20420;-78
2022/09/23 00:56:53;;;;;;;1.85;1.48;;;10.10;99.90;;;;;;5070892;28;20040;-77
2022/09/23 00:59:20;;;;;;;2.72;2.00;;;10.20;99.90;;;;;;5058526;28;20076;-78
2022/09/23 01:01:48;;;;;;;2.90;2.15;;;10.20;99.90;;;;;;5074033;28;20145;-78
2022/09/23 01:04:14;;;;;;;2.33;1.67;;;10.20;99.90;;;;;;5079688;28;20032;-77
2022/09/23 01:06:40;;;;;;;;;;;10.20;99.90;;;;;;5084165;28;20539;-78
2022/09/23 01:09:06;;;;;;;2.05;1.50;;;10.20;99.90;;;;;;5085331;28;20002;-77
2022/09/23 01:11:57;;;;;;;2.72;1.70;;;10.20;99.90;;;;;;5079274;28;20495;-78
2022/09/23 01:14:50;;;;;;;3.13;1.80;;;10.30;99.90;;;;;;5068901;28;20426;-78
2022/09/23 01:17:30;;;;;;;2.45;1.92;;;10.30;99.90;;;;;;5082236;28;20035;-78
2022/09/23 01:20:21;;;;;;;1.77;1.50;;;10.30;99.90;;;;;;5081579;28;20032;-78
2022/09/23 01:23:15;;;;;;;2.63;1.70;;;10.30;99.90;;;;;;5082691;28;20040;-78
2022/09/23 01:26:03;;;;;;;2.25;1.65;;;10.20;99.90;;;;;;5059631;28;20071;-77
2022/09/23 01:28:46;;;;;;;1.98;1.50;;;10.30;99.90;;;;;;5084122;28;20059;-76
2022/09/23 01:31:24;;;;;;;2.05;1.30;;;10.20;99.90;;;;;;5077017;28;20052;-77
2022/09/23 01:34:09;;;;;;;1.80;1.35;;;10.30;99.90;;;;;;5072181;28;20186;-77
2022/09/23 01:36:35;;;;;;;1.35;1.20;;;10.30;99.90;;;;;;5076467;28;20504;-76
2022/09/23 01:39:09;;;;;;;1.83;1.38;;;10.40;99.90;;;;;;5083070;28;20149;-77
2022/09/23 01:41:50;;;;;;;1.67;1.40;;;10.30;99.90;;;;;;5084140;28;20089;-71
2022/09/23 01:44:38;;;;;;;1.55;1.25;;;10.30;99.90;;;;;;5082980;28;20463;-71
2022/09/23 01:47:09;;;;;;;;;;;10.40;99.90;;;;;;5076288;28;20537;-70
2022/09/23 01:49:54;;;;;;;1.80;1.30;;;10.40;99.90;;;;;;5075838;28;19920;-71
2022/09/23 01:52:35;;;;;;;2.10;1.50;;;10.40;99.90;;;;;;5080189;28;20050;-70
2022/09/23 01:55:04;;;;;;;1.60;1.20;;;10.40;99.90;;;;;;5077612;28;20059;-71
2022/09/23 01:57:39;;;;;;;1.80;1.30;;;10.50;99.90;;;;;;5080225;28;20040;-70
2022/09/23 02:00:10;;;;;;;1.38;1.20;;;10.50;99.90;;;;;;5076973;28;20048;-70
2022/09/23 02:02:49;;;;;;;1.63;1.30;;;10.40;99.90;;;;;;5074868;28;20043;-70
2022/09/23 02:05:27;;;;;;;1.20;1.10;;;10.40;99.90;;;;;;5059279;28;20044;-71
2022/09/23 02:08:02;;;;;;;1.23;1.10;;;10.50;99.90;;;;;;5056239;28;20048;-70
2022/09/23 02:10:35;;;;;;;1.60;1.40;;;10.50;99.90;;;;;;5070785;28;20117;-70
2022/09/23 02:13:08;;;;;;;1.30;1.10;;;10.50;99.90;;;;;;5083143;28;20071;-70
2022/09/23 02:15:43;;;;;;;1.30;1.20;;;10.50;99.90;;;;;;5081067;28;20744;-70
2022/09/23 02:18:25;;;;;;;1.65;1.20;;;10.50;99.90;;;;;;5077565;28;20053;-70
2022/09/23 02:20:57;;;;;;;1.60;1.20;;;10.50;99.90;;;;;;5079389;28;20072;-70
2022/09/23 02:23:41;;;;;;;1.45;1.10;;;10.50;99.90;;;;;;5080249;28;20119;-70
2022/09/23 02:26:39;;;;;;;2.50;1.50;;;10.50;99.90;;;;;;5075750;28;20129;-70
2022/09/23 02:29:26;;;;;;;1.58;1.30;;;10.40;99.90;;;;;;5076766;28;20527;-70
2022/09/23 02:32:07;;;;;;;2.13;1.48;;;10.40;99.90;;;;;;5076281;28;20685;-70
2022/09/23 02:34:47;;;;;;;1.63;1.20;;;10.50;99.90;;;;;;5078509;28;20821;-70
2022/09/23 02:37:26;;;;;;;1.55;1.20;;;10.40;99.90;;;;;;5078163;28;20101;-70
2022/09/23 02:40:22;;;;;;;1.70;1.08;;;10.30;99.90;;;;;;5082463;28;20055;-70
2022/09/23 02:43:13;;;;;;;1.40;1.23;;;10.40;99.90;;;;;;5080462;28;20040;-70
2022/09/23 02:45:39;;;;;;;1.50;1.10;;;10.30;99.90;;;;;;5080026;28;20048;-70
2022/09/23 02:48:17;;;;;;;1.75;1.40;;;10.30;99.90;;;;;;5077434;28;20144;-70
2022/09/23 02:50:43;;;;;;;1.50;1.40;;;10.20;99.90;;;;;;5076268;28;20040;-71
2022/09/23 02:53:09;;;;;;;;;;;10.20;99.90;;;;;;5057485;28;20044;-70
2022/09/23 02:55:35;;;;;;;2.05;1.50;;;10.20;99.90;;;;;;5079493;28;19939;-70
2022/09/23 02:58:04;;;;;;;1.75;1.40;;;10.10;99.90;;;;;;5056978;28;20032;-70
2022/09/23 03:00:51;;;;;;;1.60;1.30;;;10.10;99.90;;;;;;5058155;28;20032;-71
2022/09/23 03:03:34;;;;;;;2.20;1.70;;;10.00;99.90;;;;;;5081485;28;20111;-71
2022/09/23 03:06:14;;;;;;;1.27;1.17;;;10.00;99.90;;;;;;5078890;28;20051;-70
2022/09/23 03:08:49;;;;;;;1.52;1.38;;;9.90;99.90;;;;;;5082960;28;20055;-70
2022/09/23 03:11:16;;;;;;;1.50;1.30;;;9.90;99.90;;;;;;5078268;28;20032;-70
2022/09/23 03:14:20;;;;;;;1.65;1.40;;;9.90;99.90;;;;;;5078624;28;20505;-70
2022/09/23 03:17:03;;;;;;;1.50;1.40;;;9.80;99.90;;;;;;5077067;28;20052;-71
2022/09/23 03:19:47;;;;;;;2.17;1.70;;;9.90;99.90;;;;;;5055426;28;20045;-71
2022/09/23 03:22:21;;;;;;;2.08;1.60;;;9.80;99.90;;;;;;5074733;28;20033;-71
2022/09/23 03:24:49;;;;;;;1.83;1.60;;;9.80;99.90;;;;;;5058363;28;21730;-71
2022/09/23 03:27:19;;;;;;;1.63;1.50;;;9.70;99.90;;;;;;5063442;28;20090;-70
2022/09/23 03:29:47;;;;;;;3.20;1.73;;;9.80;99.90;;;;;;5078667;28;20052;-70
2022/09/23 03:32:17;;;;;;;2.63;1.60;;;9.80;99.90;;;;;;5078932;28;20056;-71
2022/09/23 03:34:45;;;;;;;2.30;1.90;;;9.70;99.90;;;;;;5074873;28;20466;-71
2022/09/23 03:37:18;;;;;;;2.72;1.80;;;9.70;99.90;;;;;;5062715;28;20142;-71
2022/09/23 03:40:03;;;;;;;2.00;1.73;;;9.70;99.90;;;;;;5077149;28;20068;-71
2022/09/23 03:42:32;;;;;;;1.92;1.60;;;9.70;99.90;;;;;;5080254;28;20386;-71
2022/09/23 03:45:00;;;;;;;2.03;1.50;;;9.70;99.90;;;;;;5080645;28;20095;-71
2022/09/23 03:47:27;;;;;;;1.95;1.70;;;9.70;99.90;;;;;;5064091;28;20048;-71
2022/09/23 03:49:53;;;;;;;1.52;1.42;;;9.70;99.90;;;;;;5064329;28;20123;-71
2022/09/23 03:52:20;;;;;;;;;;;9.70;99.90;;;;;;5079876;28;20063;-71
2022/09/23 03:54:46;;;;;;;1.92;1.70;;;9.70;99.90;;;;;;5084375;28;19974;-71
2022/09/23 03:57:12;;;;;;;2.90;1.80;;;9.60;99.90;;;;;;5078366;28;20048;-71
2022/09/23 03:59:38;;;;;;;2.65;1.77;;;9.60;99.90;;;;;;5076819;28;20508;-71
2022/09/23 04:02:06;;;;;;;;;;;9.60;99.90;;;;;;5082324;28;20549;-71
2022/09/23 04:04:34;;;;;;;1.90;1.70;;;9.50;99.90;;;;;;5082630;28;19924;-72
2022/09/23 04:07:00;;;;;;;2.13;1.60;;;9.50;99.90;;;;;;5057157;28;20460;-70
2022/09/23 04:09:26;;;;;;;1.70;1.60;;;9.50;99.90;;;;;;5058873;28;20086;-70
2022/09/23 04:11:52;;;;;;;1.60;1.40;;;9.50;99.90;;;;;;5085207;28;20051;-71
2022/09/23 04:14:20;;;;;;;2.47;1.88;;;9.50;99.90;;;;;;5083572;28;21406;-71
2022/09/23 04:16:47;;;;;;;2.17;1.95;;;9.50;99.90;;;;;;5079693;28;20048;-70
2022/09/23 04:19:14;;;;;;;1.95;1.60;;;9.40;99.90;;;;;;5083203;28;20040;-70
2022/09/23 04:21:41;;;;;;;1.90;1.70;;;9.30;99.90;;;;;;5056768;28;20067;-71
2022/09/23 04:24:08;;;;;;;1.77;1.60;;;9.30;99.90;;;;;;5060262;28;20438;-71
2022/09/23 04:26:34;;;;;;;2.30;1.85;;;9.40;99.90;;;;;;5082159;28;20043;-70
2022/09/23 04:29:00;;;;;;;;;;;9.30;99.90;;;;;;5082307;28;20551;-70
2022/09/23 04:31:27;;;;;;;2.00;1.80;;;9.30;99.90;;;;;;5065144;28;20026;-70
2022/09/23 04:33:53;;;;;;;1.85;1.70;;;9.40;99.90;;;;;;5063145;28;20089;-71
2022/09/23 04:36:19;;;;;;;2.08;1.65;;;9.30;99.90;;;;;;5055377;28;20098;-70
2022/09/23 04:38:46;;;;;;;1.73;1.52;;;9.30;99.90;;;;;;5079894;28;20094;-69
2022/09/23 04:41:12;;;;;;;2.30;1.70;;;9.30;99.90;;;;;;5084349;28;20081;-69
2022/09/23 04:43:38;;;;;;;2.70;1.83;;;9.20;99.90;;;;;;5081471;28;20060;-70
2022/09/23 04:46:06;;;;;;;2.15;1.60;;;9.20;99.90;;;;;;5064723;28;20071;-70
2022/09/23 04:48:32;;;;;;;2.10;1.70;;;9.20;99.90;;;;;;5081133;28;20040;-70
2022/09/23 04:51:03;;;;;;;;;;;9.30;99.90;;;;;;5080363;28;20101;-70
2022/09/23 04:53:28;;;;;;;2.00;1.67;;;9.20;99.90;;;;;;5081079;28;20056;-71
2022/09/23 04:56:00;;;;;;;2.30;1.90;;;9.20;99.90;;;;;;5081671;28;20499;-69
2022/09/23 04:58:27;;;;;;;2.00;1.45;;;9.20;99.90;;;;;;5058034;28;20067;-70
2022/09/23 05:00:53;;;;;;;1.88;1.58;;;9.30;99.90;;;;;;5062196;28;20105;-70
2022/09/23 05:03:19;;;;;;;1.88;1.70;;;9.30;99.90;;;;;;5081945;28;20472;-70
2022/09/23 05:05:45;;;;;;;2.28;2.08;;;9.20;99.90;;;;;;5077923;28;20456;-70
2022/09/23 05:08:11;;;;;;;2.03;1.83;;;9.20;99.90;;;;;;5079155;28;20322;-71
2022/09/23 05:10:36;;;;;;;2.10;1.90;;;9.20;99.90;;;;;;5082255;28;20135;-71
2022/09/23 05:13:02;;;;;;;2.40;2.20;;;9.20;99.90;;;;;;5063911;28;20445;-71
2022/09/23 05:15:28;;;;;;;2.35;2.15;;;9.20;99.90;;;;;;5076153;28;20043;-71
2022/09/23 05:17:57;;;;;;;2.47;2.10;;;9.20;99.90;;;;;;5060976;28;20035;-71
2022/09/23 05:20:23;;;;;;;2.30;1.90;;;9.10;99.90;;;;;;5080261;28;20049;-71
2022/09/23 05:22:49;;;;;;;2.25;2.05;;;9.20;99.90;;;;;;5074365;28;20036;-72
2022/09/23 05:25:15;;;;;;;2.10;1.90;;;9.20;99.90;;;;;;5057548;28;20090;-70
2022/09/23 05:27:41;;;;;;;2.50;2.08;;;9.10;99.90;;;;;;5078665;28;20747;-70
2022/09/23 05:30:07;;;;;;;2.20;2.00;;;9.20;99.90;;;;;;5074449;28;20055;-71
2022/09/23 05:32:33;;;;;;;2.75;2.47;;;9.10;99.90;;;;;;5079128;28;20041;-72
2022/09/23 05:34:59;;;;;;;3.60;2.78;;;9.20;99.90;;;;;;5079419;28;20032;-73
2022/09/23 05:37:24;;;;;;;2.63;2.40;;;9.10;99.90;;;;;;5037021;28;20036;-74
2022/09/23 05:39:50;;;;;;;2.92;2.55;;;9.20;99.90;;;;;;5078409;28;20052;-74
2022/09/23 05:42:19;;;;;;;2.60;2.38;;;9.20;99.90;;;;;;5079250;28;20031;-74
2022/09/23 05:44:46;;;;;;;2.50;2.30;;;9.20;99.90;;;;;;5079571;28;20429;-74
2022/09/23 05:47:11;;;;;;;2.67;2.45;;;9.30;99.90;;;;;;5059204;28;20040;-74
2022/09/23 05:49:37;;;;;;;2.63;2.00;;;9.30;99.90;;;;;;5057815;28;20044;-73
2022/09/23 05:52:03;;;;;;;2.30;2.00;;;9.30;99.90;;;;;;5074526;28;20048;-73
2022/09/23 05:54:28;;;;;;;2.00;1.80;;;9.40;99.90;;;;;;5079662;28;20097;-74
2022/09/23 05:56:54;;;;;;;2.30;2.10;;;9.50;99.90;;;;;;5072896;28;20040;-72
2022/09/23 05:59:20;;;;;;;3.00;2.42;;;9.50;99.90;;;;;;5077074;28;20365;-72
2022/09/23 06:01:45;;;;;;;2.90;2.08;;;9.40;99.90;;;;;;5076016;28;20056;-71
2022/09/23 06:04:13;;;;;;;2.45;2.15;;;9.60;99.90;;;;;;5069969;28;20047;-72
2022/09/23 06:06:41;;;;;;;2.50;2.30;;;9.50;99.90;;;;;;5075957;28;20037;-71
2022/09/23 06:09:12;;;;;;;2.63;2.20;;;9.60;99.90;;;;;;5077474;28;20044;-72
2022/09/23 06:11:38;;;;;;;3.00;2.70;;;9.60;99.90;;;;;;5061390;28;20040;-72
2022/09/23 06:14:04;;;;;;;3.35;2.28;;;9.70;99.90;;;;;;5079821;28;20503;-72
2022/09/23 06:16:35;;;;;;;2.70;2.30;;;9.70;99.90;;;;;;5061452;28;20028;-71
2022/09/23 06:19:04;;;;;;;2.63;2.13;;;9.70;99.90;;;;;;5084232;28;20506;-71
2022/09/23 06:21:32;;;;;;;2.38;1.80;;;9.80;99.90;;;;;;5054567;28;20041;-73
2022/09/23 06:24:01;;;;;;;2.38;2.00;;;9.80;99.90;;;;;;5075022;28;20044;-73
2022/09/23 06:26:32;;;;;;;2.45;2.15;;;9.90;99.90;;;;;;5055809;28;20472;-74
2022/09/23 06:29:00;;;;;;;2.42;2.20;;;9.90;99.90;;;;;;5060131;28;20078;-74
2022/09/23 06:31:26;;;;;;;2.47;2.28;;;9.80;99.90;;;;;;5071156;28;20421;-74
2022/09/23 06:33:52;;;;;;;2.10;1.90;;;9.90;99.90;;;;;;5081871;28;20167;-73
2022/09/23 06:36:18;;;;;;;;;;;10.00;99.90;;;;;;5090475;28;20467;-73
2022/09/23 06:38:44;;;;;;;2.70;2.20;;;10.10;99.90;;;;;;5077907;28;19920;-74
2022/09/23 06:41:10;;;;;;;2.38;2.05;;;10.10;99.90;;;;;;5080026;28;20050;-73
2022/09/23 06:43:36;;;;;;;2.67;2.25;;;10.10;99.90;;;;;;5058345;28;20098;-73
2022/09/23 06:46:03;;;;;;;2.65;2.22;;;10.20;99.90;;;;;;5081381;28;20858;-74
2022/09/23 06:48:33;;;;;;;3.03;2.72;;;10.20;99.90;;;;;;5079541;28;20046;-73
2022/09/23 06:51:03;;;;;;;2.53;2.33;;;10.40;99.90;;;;;;5079280;28;20491;-74
2022/09/23 06:53:31;;;;;;;2.40;2.20;;;10.50;99.90;;;;;;5073926;28;20032;-74
2022/09/23 06:56:01;;;;;;;2.10;1.80;;;10.50;99.90;;;;;;5058708;28;20051;-71
2022/09/23 06:58:30;;;;;;;2.47;2.20;;;10.60;99.90;;;;;;5079530;28;20137;-73
2022/09/23 07:01:05;;;;;;;2.80;2.45;;;10.70;99.90;;;;;;5060239;28;20112;-73
2022/09/23 07:03:32;;;;;;;3.00;2.70;;;10.80;99.90;;;;;;5068978;28;20480;-74
2022/09/23 07:05:58;;;;;;;2.60;2.40;;;10.80;99.90;;;;;;5071158;28;20471;-74
2022/09/23 07:08:26;;;;;;;3.05;2.53;;;10.80;99.90;;;;;;5053906;28;20116;-74
2022/09/23 07:10:56;;;;;;;3.20;2.60;;;10.80;99.90;;;;;;5055617;28;20040;-73
2022/09/23 07:13:22;;;;;;;2.50;2.20;;;10.90;99.90;;;;;;5080620;28;20040;-72
2022/09/23 07:15:53;;;;;;;3.63;2.90;;;11.00;99.90;;;;;;5078924;28;20480;-74
2022/09/23 07:18:22;;;;;;;2.30;2.10;;;10.90;99.90;;;;;;5077460;28;20049;-73
2022/09/23 07:20:49;;;;;;;2.80;2.40;;;10.90;99.90;;;;;;5073040;28;20044;-73
2022/09/23 07:23:16;;;;;;;2.83;2.30;;;10.90;99.90;;;;;;5074334;28;20123;-74
2022/09/23 07:25:42;;;;;;;3.00;2.55;;;10.90;99.90;;;;;;5069758;28;20415;-74
2022/09/23 07:28:08;;;;;;;;;;;10.90;99.90;;;;;;5062437;28;20040;-73
2022/09/23 07:30:38;;;;;;;2.95;2.60;;;10.90;99.90;;;;;;5078745;28;19925;-74
2022/09/23 07:33:05;;;;;;;2.50;2.30;;;10.90;99.90;;;;;;5072000;28;20050;-73
2022/09/23 07:35:31;;;;;;;2.65;2.20;;;11.00;99.90;;;;;;5075113;28;20083;-73
2022/09/23 07:37:57;;;;;;;2.55;2.35;;;11.10;99.90;;;;;;5074643;28;20042;-74
2022/09/23 07:40:23;;;;;;;2.20;2.00;;;11.10;99.90;;;;;;5071684;28;20040;-73
2022/09/23 07:42:49;;;;;;;2.50;2.03;;;11.20;99.90;;;;;;5071045;28;20407;-73
2022/09/23 07:45:15;;;;;;;2.17;1.85;;;11.30;99.90;;;;;;5062485;28;20045;-74
2022/09/23 07:47:40;;;;;;;2.47;2.10;;;11.40;99.90;;;;;;5067848;28;20096;-73
2022/09/23 07:50:10;;;;;;;2.40;2.20;;;11.50;99.90;;;;;;5083567;28;20123;-73
2022/09/23 07:52:36;;;;;;;2.60;2.40;;;11.50;99.90;;;;;;5077273;28;20047;-73
2022/09/23 07:55:04;;;;;;;3.45;3.00;;;11.70;99.90;;;;;;5058851;28;20102;-74
2022/09/23 07:57:30;;;;;;;2.72;2.47;;;11.70;99.90;;;;;;5051545;28;20047;-73
2022/09/23 07:59:55;;;;;;;2.60;2.20;;;11.90;99.90;;;;;;5085600;28;20044;-74
2022/09/23 08:02:21;;;;;;;2.60;2.22;;;11.90;99.90;;;;;;5062407;28;20043;-73
2022/09/23 08:04:48;;;;;;;2.60;2.10;;;12.00;99.90;;;;;;5079882;28;20483;-73
2022/09/23 08:07:15;;;;;;;2.50;2.15;;;12.10;99.90;;;;;;5086418;28;20505;-74
2022/09/23 08:09:42;;;;;;;2.60;2.30;;;12.20;99.90;;;;;;5081810;28;20055;-74
2022/09/23 08:12:10;;;;;;;2.25;2.05;;;12.20;99.90;;;;;;5095176;28;20110;-74
2022/09/23 08:14:37;;;;;;;3.35;2.67;;;12.40;99.90;;;;;;5086978;28;20060;-74
2022/09/23 08:17:04;;;;;;;3.20;2.40;;;12.40;99.90;;;;;;5090331;28;20040;-74
2022/09/23 08:19:29;;;;;;;3.33;3.03;;;12.40;99.90;;;;;;5075035;28;20183;-74
2022/09/23 08:21:56;;;;;;;2.60;2.40;;;12.40;99.90;;;;;;5076868;28;20127;-74
2022/09/23 08:24:23;;;;;;;2.90;2.53;;;12.50;99.90;;;;;;5075024;28;20086;-74
2022/09/23 08:26:52;;;;;;;2.92;2.50;;;12.70;99.90;;;;;;5075385;28;20050;-74
2022/09/23 08:29:19;;;;;;;3.10;2.80;;;12.70;99.90;;;;;;5071550;28;20578;-74
2022/09/23 08:31:45;;;;;;;2.53;2.30;;;12.70;99.90;;;;;;5077641;28;20040;-74
2022/09/23 08:34:12;;;;;;;2.50;2.20;;;12.90;99.90;;;;;;5073450;28;20044;-79
2022/09/23 08:36:37;;;;;;;;;;;13.00;99.90;;;;;;5081114;28;20048;-79
2022/09/23 08:39:04;;;;;;;2.53;2.33;;;13.10;99.90;;;;;;5086343;28;19943;-79
2022/09/23 08:41:51;;;;;;;2.78;2.25;;;13.10;99.90;;;;;;5082858;28;20059;-79
2022/09/23 08:44:25;;;;;;;2.35;2.10;;;13.20;99.90;;;;;;5078860;28;20040;-79
2022/09/23 08:47:26;;;;;;;3.03;2.00;;;13.40;99.90;;;;;;5061967;28;20097;-79
2022/09/23 08:50:05;;;;;;;3.65;2.30;;;13.50;99.90;;;;;;5072098;28;20955;-79
2022/09/23 08:52:55;;;;;;;2.40;2.20;;;13.60;99.90;;;;;;5083439;28;20051;-80
2022/09/23 08:55:41;;;;;;;2.45;2.25;;;13.70;99.90;;;;;;5091758;28;20090;-79
2022/09/23 08:58:34;;;;;;;2.03;1.70;;;13.90;99.90;;;;;;5089282;28;20884;-78
2022/09/23 09:01:37;;;;;;;2.65;1.83;;;14.00;99.90;;;;;;5090120;28;20395;-79
2022/09/23 09:04:14;;;;;;;3.25;2.67;;;14.10;99.90;;;;;;5062533;28;20440;-79
2022/09/23 09:07:02;;;;;;;2.20;2.00;;;14.00;99.90;;;;;;5057018;28;20051;-79
2022/09/23 09:09:36;;;;;;;2.17;1.80;;;14.10;99.90;;;;;;5061007;28;20048;-79
2022/09/23 09:12:10;;;;;;;2.20;2.00;;;14.20;99.90;;;;;;5084479;28;20076;-79
2022/09/23 09:14:56;;;;;;;2.72;1.90;;;14.20;99.90;;;;;;5080431;28;20131;-79
2022/09/23 09:17:37;;;;;;;3.30;2.80;;;14.30;99.90;;;;;;5084035;28;20040;-79
2022/09/23 09:20:20;;;;;;;3.67;2.75;;;14.20;99.90;;;;;;5078012;28;20047;-79
2022/09/23 09:22:53;;;;;;;3.45;2.83;;;14.30;99.90;;;;;;5098086;28;20047;-79
2022/09/23 09:25:32;;;;;;;2.97;2.22;;;14.40;99.90;;;;;;5080334;28;20147;-79
2022/09/23 09:27:59;;;;;;;2.40;2.20;;;14.40;99.90;;;;;;5090563;28;20047;-80
2022/09/23 09:30:25;;;;;;;2.67;2.00;;;14.40;99.90;;;;;;5093065;28;20044;-79
2022/09/23 09:33:00;;;;;;;3.05;2.38;;;14.50;99.90;;;;;;5086375;28;20174;-79
2022/09/23 09:35:55;;;;;;;2.45;2.25;;;14.50;99.90;;;;;;5082175;28;20047;-80
2022/09/23 09:38:21;;;;;;;2.88;2.50;;;14.60;99.90;;;;;;5077832;28;20095;-80
2022/09/23 09:40:47;;;;;;;2.42;1.80;;;14.60;99.90;;;;;;5054149;28;20470;-80
2022/09/23 09:43:22;;;;;;;;;;;14.60;99.90;;;;;;5091324;28;20403;-80
2022/09/23 09:46:21;;;;;;;2.05;1.80;;;14.70;99.90;;;;;;5091164;28;20032;-81
2022/09/23 09:48:58;;;;;;;2.53;2.05;;;14.70;99.90;;;;;;5087626;28;20028;-75
2022/09/23 09:51:26;;;;;;;2.53;2.00;;;14.80;99.90;;;;;;5081633;28;20035;-74
2022/09/23 09:53:54;;;;;;;2.33;1.83;;;14.90;99.90;;;;;;5075015;28;20131;-74
2022/09/23 09:56:30;;;;;;;2.00;1.60;;;14.90;99.90;;;;;;5052900;28;20365;-74
2022/09/23 09:59:07;;;;;;;2.75;2.13;;;14.90;99.90;;;;;;5070279;28;20097;-74
2022/09/23 10:01:34;;;;;;;1.92;1.70;;;14.90;99.90;;;;;;5066429;28;20541;-74
2022/09/23 10:04:03;;;;;;;1.95;1.65;;;14.90;99.90;;;;;;5084368;28;20119;-75
2022/09/23 10:06:31;;;;;;;1.90;1.70;;;14.90;99.90;;;;;;5083180;28;20035;-75
2022/09/23 10:09:03;;;;;;;1.48;1.25;;;15.00;99.90;;;;;;5089953;28;20043;-74
2022/09/23 10:11:30;;;;;;;1.48;1.10;;;15.10;99.90;;;;;;5072783;28;20437;-74
2022/09/23 10:14:09;;;;;;;3.58;1.80;;;15.10;99.90;;;;;;5094264;28;20044;-74
2022/09/23 10:16:36;;;;;;;2.10;1.70;;;15.10;99.90;;;;;;5099319;28;20040;-74
2022/09/23 10:19:02;;;;;;;;;;;15.00;99.90;;;;;;5097756;28;20042;-74
2022/09/23 10:21:34;;;;;;;2.15;1.45;;;15.10;99.90;;;;;;5094340;28;19926;-73
2022/09/23 10:24:03;;;;;;;1.92;1.70;;;15.10;99.90;;;;;;5067237;28;20061;-73
2022/09/23 10:26:31;;;;;;;2.30;1.52;;;15.10;99.90;;;;;;5071464;28;20048;-73
2022/09/23 10:29:00;;;;;;;1.70;1.48;;;15.20;99.90;;;;;;5078181;28;20041;-74
2022/09/23 10:31:30;;;;;;;2.10;1.90;;;15.20;99.90;;;;;;5060473;28;20052;-74
2022/09/23 10:33:59;;;;;;;2.13;1.58;;;15.10;99.90;;;;;;5079960;28;20047;-73
2022/09/23 10:36:32;;;;;;;1.92;1.67;;;15.20;99.90;;;;;;5080539;28;20040;-73
2022/09/23 10:47:55;;;;;;;2.13;1.80;;;15.40;99.90;;;;;;5074114;28;20040;-74
2022/09/23 10:50:27;;;;;;;3.22;2.20;;;15.40;99.90;;;;;;5089093;28;20093;-73
2022/09/23 10:53:14;;;;;;;2.42;2.10;;;15.40;99.90;;;;;;5075117;28;20071;-74
2022/09/23 10:56:27;;;;;;;2.22;1.73;;;15.50;99.90;;;;;;5065832;28;20066;-73
2022/09/23 10:59:20;;;;;;;1.90;1.70;;;15.50;99.90;;;;;;5051110;28;20443;-74
2022/09/23 11:01:57;;;;;;;2.63;1.65;;;15.60;99.90;;;;;;5084626;28;20157;-79
2022/09/23 11:04:31;;;;;;;2.88;1.90;;;15.70;99.90;;;;;;5075805;28;20480;-80
2022/09/23 11:07:06;;;;;;;2.22;1.90;;;15.80;99.90;;;;;;5079558;28;20073;-81
2022/09/23 11:09:57;;;;;;;2.03;1.55;;;15.80;99.90;;;;;;5078334;28;20040;-73
2022/09/23 11:12:25;;;;;;;2.30;1.77;;;15.90;99.90;;;;;;5078607;28;20091;-73
2022/09/23 11:15:46;;;;;;;2.00;1.77;;;16.00;99.90;;;;;;5076468;28;20044;-74
2022/09/23 11:18:25;;;;;;;2.25;1.80;;;16.10;99.90;;;;;;5060583;28;20040;-73
2022/09/23 11:21:19;;;;;;;2.03;1.73;;;16.10;99.90;;;;;;5073693;28;20087;-75
2022/09/23 11:24:14;;;;;;;2.00;1.80;;;16.20;99.90;;;;;;5083049;28;20114;-74
2022/09/23 11:26:46;;;;;;;1.30;1.20;;;16.20;99.90;;;;;;5047347;28;20504;-74
2022/09/23 11:29:27;;;;;;;1.65;1.45;;;16.20;99.90;;;;;;5054775;28;20044;-74
2022/09/23 11:32:16;;;;;;;1.70;1.35;;;16.10;99.90;;;;;;5069295;28;20084;-75
2022/09/23 11:35:15;;;;;;;1.50;1.40;;;16.10;99.90;;;;;;5079394;28;20078;-75
2022/09/23 11:38:04;;;;;;;1.60;1.40;;;16.00;99.90;;;;;;5058349;28;20052;-75
2022/09/23 11:40:32;;;;;;;1.80;1.50;;;16.00;99.90;;;;;;5055492;28;20044;-75
2022/09/23 11:43:18;;;;;;;2.15;1.60;;;16.00;99.90;;;;;;5079425;28;20127;-74
2022/09/23 11:46:31;;;;;;;2.15;1.42;;;16.00;99.90;;;;;;5078465;28;20430;-74
2022/09/23 11:49:14;;;;;;;1.73;1.50;;;16.00;99.90;;;;;;5020559;28;20493;-74
2022/09/23 11:52:02;;;;;;;1.63;1.23;;;16.00;99.90;;;;;;5071326;28;20122;-74
2022/09/23 11:54:35;;;;;;;2.35;1.60;;;16.00;99.90;;;;;;5072730;28;20040;-75
2022/09/23 11:57:03;;;;;;;1.88;1.50;;;16.00;99.90;;;;;;5077458;28;20106;-72
2022/09/23 11:59:46;;;;;;;2.67;1.88;;;16.00;99.90;;;;;;5080675;28;20071;-73
2022/09/23 12:02:32;;;;;;;1.63;1.40;;;16.10;99.90;;;;;;5076285;28;20448;-72
2022/09/23 12:05:31;;;;;;;1.83;1.50;;;16.10;99.90;;;;;;5077906;28;20117;-72
2022/09/23 12:08:02;;;;;;;1.83;1.50;;;16.20;99.90;;;;;;5077018;28;20052;-72
2022/09/23 12:10:46;;;;;;;1.60;1.20;;;16.20;99.90;;;;;;5085644;28;20048;-72
2022/09/23 12:13:38;;;;;;;1.92;1.52;;;16.20;99.90;;;;;;5099320;28;20044;-72
2022/09/23 12:16:41;;;;;;;2.05;1.58;;;16.20;99.90;;;;;;5079593;28;20056;-72
2022/09/23 12:19:23;;;;;;;2.05;1.48;;;16.20;99.90;;;;;;5079198;28;20394;-72
2022/09/23 12:21:58;;;;;;;2.20;1.80;;;16.20;99.90;;;;;;5076442;28;20075;-72
2022/09/23 12:24:42;;;;;;;2.03;1.83;;;16.20;99.90;;;;;;5075093;28;20048;-72
2022/09/23 12:27:17;;;;;;;1.65;1.30;;;16.20;99.90;;;;;;5088612;28;20032;-73
2022/09/23 12:29:43;;;;;;;1.30;1.20;;;16.30;99.90;;;;;;5082653;28;20044;-73
2022/09/23 12:32:17;;;;;;;2.63;1.60;;;16.20;99.90;;;;;;5057481;28;20043;-72
2022/09/23 12:34:47;;;;;;;1.90;1.70;;;16.20;99.90;;;;;;5083005;28;20080;-73
2022/09/23 12:37:25;;;;;;;2.53;1.77;;;16.30;99.90;;;;;;5071954;28;20835;-73
2022/09/23 12:39:51;;;;;;;2.28;1.60;;;16.40;99.90;;;;;;5086071;28;20036;-73
2022/09/23 12:42:21;;;;;;;2.10;1.60;;;16.30;99.90;;;;;;5085800;28;20036;-72
2022/09/23 12:44:48;;;;;;;2.20;1.70;;;16.40;99.90;;;;;;5079091;28;20124;-72
2022/09/23 12:47:14;;;;;;;1.58;1.38;;;16.50;99.90;;;;;;5087689;28;20505;-72
2022/09/23 12:49:41;;;;;;;1.65;1.45;;;16.50;99.90;;;;;;5091707;28;20580;-72
2022/09/23 12:52:15;;;;;;;1.98;1.48;;;16.50;99.90;;;;;;5083501;28;20097;-72
2022/09/23 12:54:46;;;;;;;2.15;1.42;;;16.60;99.90;;;;;;5081241;28;20135;-72
2022/09/23 12:57:34;;;;;;;1.70;1.40;;;16.60;99.90;;;;;;5086827;28;20096;-71
2022/09/23 13:00:10;;;;;;;2.35;1.40;;;16.60;99.90;;;;;;5086120;28;20044;-72
2022/09/23 13:02:44;;;;;;;1.85;1.40;;;16.50;99.90;;;;;;5084136;28;20437;-71
2022/09/23 13:08:19;;;;;;;2.05;1.65;;;16.50;99.90;;;;;;5071675;28;20055;-71
2022/09/23 13:11:00;;;;;;;1.70;1.42;;;16.50;99.90;;;;;;5079979;28;20040;-71
2022/09/23 13:13:34;;;;;;;2.28;1.80;;;16.50;99.90;;;;;;5101883;28;20044;-72
2022/09/23 13:16:38;;;;;;;2.03;1.70;;;16.40;99.90;;;;;;5063809;28;20395;-72
2022/09/23 13:19:06;;;;;;;2.60;1.95;;;16.30;99.90;;;;;;5078392;28;20063;-72
2022/09/23 13:21:44;;;;;;;1.80;1.40;;;16.30;99.90;;;;;;5071754;28;20043;-81
2022/09/23 13:24:23;;;;;;;2.17;1.50;;;16.30;99.90;;;;;;5069745;28;20467;-80
2022/09/23 13:27:04;;;;;;;2.53;2.15;;;16.20;99.90;;;;;;5069731;28;20052;-81
2022/09/23 13:29:43;;;;;;;2.10;1.48;;;16.10;99.90;;;;;;5090664;28;20395;-80
2022/09/23 13:32:16;;;;;;;2.13;1.77;;;16.10;99.90;;;;;;5073690;28;20514;-81
2022/09/23 13:34:46;;;;;;;2.15;1.70;;;16.00;99.90;;;;;;5090732;28;20066;-79